createdAt,value
2023-01-24T00:02:01.607Z,30.00
2023-01-24T00:04:32.806Z,28.60
2023-01-24T00:07:03.548Z,28.30
2023-01-24T00:09:34.328Z,29.90
2023-01-24T00:12:05.083Z,29.70
2023-01-24T00:14:36.065Z,29.40
2023-01-24T00:17:08.961Z,30.20
2023-01-24T00:19:39.679Z,31.20
2023-01-24T00:22:10.326Z,30.90
2023-01-24T00:24:41.138Z,30.90
2023-01-24T00:27:11.923Z,30.50
2023-01-24T00:29:42.725Z,29.70
2023-01-24T00:32:13.705Z,29.30
2023-01-24T00:34:44.401Z,30.30
2023-01-24T00:37:15.087Z,30.10
2023-01-24T00:39:45.858Z,31.40
2023-01-24T00:42:16.959Z,31.90
2023-01-24T00:44:47.701Z,31.00
2023-01-24T00:47:18.602Z,29.70
2023-01-24T00:49:49.311Z,30.20
2023-01-24T00:52:20.283Z,30.30
2023-01-24T00:54:52.455Z,28.20
2023-01-24T00:57:25.428Z,29.90
2023-01-24T00:59:56.181Z,30.10
2023-01-24T01:02:27.543Z,30.40
2023-01-24T01:04:58.282Z,29.20
2023-01-24T01:07:29.062Z,31.10
2023-01-24T01:09:59.836Z,31.50
2023-01-24T01:12:30.777Z,29.10
2023-01-24T01:15:01.542Z,30.30
2023-01-24T01:17:32.461Z,30.60
2023-01-24T01:20:03.439Z,30.40
2023-01-24T01:22:34.323Z,29.70
2023-01-24T01:25:06.846Z,29.70
2023-01-24T01:27:37.557Z,28.80
2023-01-24T01:30:10.512Z,30.70
2023-01-24T01:32:41.652Z,31.30
2023-01-24T01:35:13.066Z,29.60
2023-01-24T01:37:44.108Z,27.40
2023-01-24T01:40:15.664Z,30.20
2023-01-24T01:42:53.516Z,28.10
2023-01-24T01:45:48.006Z,28.60
2023-01-24T01:48:25.260Z,30.90
2023-01-24T01:51:03.843Z,29.10
2023-01-24T01:53:42.673Z,30.70
2023-01-24T01:56:22.748Z,31.00
2023-01-24T01:58:55.525Z,29.90
2023-01-24T02:01:26.709Z,28.90
2023-01-24T02:04:09.395Z,31.20
2023-01-24T02:09:42.475Z,28.00
2023-01-24T02:12:17.810Z,31.10
2023-01-24T02:15:07.875Z,28.50
2023-01-24T02:17:38.927Z,27.90
2023-01-24T02:20:28.401Z,28.10
2023-01-24T02:23:13.013Z,28.70
2023-01-24T02:25:53.428Z,30.70
2023-01-24T02:28:24.571Z,29.10
2023-01-24T02:31:00.431Z,28.30
2023-01-24T02:33:32.110Z,28.70
2023-01-24T02:36:21.328Z,28.40
2023-01-24T02:38:59.996Z,25.20
2023-01-24T02:41:37.805Z,28.30
2023-01-24T02:44:14.695Z,28.00
2023-01-24T02:46:48.085Z,29.10
2023-01-24T02:49:20.321Z,26.10
2023-01-24T02:52:11.263Z,28.40
2023-01-24T02:54:45.199Z,27.90
2023-01-24T02:57:34.566Z,27.50
2023-01-24T03:00:09.050Z,26.10
2023-01-24T03:02:41.705Z,25.80
2023-01-24T03:05:15.905Z,28.50
2023-01-24T03:07:47.195Z,25.20
2023-01-24T03:10:23.195Z,27.10
2023-01-24T03:13:14.229Z,28.70
2023-01-24T03:16:03.478Z,29.00
2023-01-24T03:18:52.844Z,28.20
2023-01-24T03:21:43.313Z,27.40
2023-01-24T03:24:34.699Z,28.10
2023-01-24T03:27:23.983Z,27.50
2023-01-24T03:30:12.925Z,27.20
2023-01-24T03:33:02.840Z,26.30
2023-01-24T03:35:35.129Z,25.80
2023-01-24T03:38:25.718Z,26.40
2023-01-24T03:40:59.141Z,27.80
2023-01-24T03:43:31.363Z,30.10
2023-01-24T03:46:02.691Z,25.60
2023-01-24T03:48:48.511Z,27.20
2023-01-24T03:51:37.574Z,28.50
2023-01-24T03:54:09.030Z,27.50
2023-01-24T03:56:46.616Z,27.30
2023-01-24T03:59:17.848Z,27.10
2023-01-24T04:01:52.100Z,25.80
2023-01-24T04:04:49.304Z,26.80
2023-01-24T04:07:27.004Z,25.10
2023-01-24T04:10:08.963Z,24.30
2023-01-24T04:12:44.938Z,26.30
2023-01-24T04:15:28.143Z,26.30
2023-01-24T04:18:10.306Z,25.70
2023-01-24T04:20:41.715Z,27.20
2023-01-24T04:23:14.190Z,26.30
2023-01-24T04:25:55.626Z,27.30
2023-01-24T04:28:27.442Z,24.00
2023-01-24T04:31:03.271Z,25.50
2023-01-24T04:33:50.824Z,29.80
2023-01-24T04:36:22.181Z,25.40
2023-01-24T04:38:53.112Z,27.00
2023-01-24T04:41:29.281Z,26.70
2023-01-24T04:44:00.684Z,27.80
2023-01-24T04:46:33.040Z,25.90
2023-01-24T04:49:05.086Z,26.30
2023-01-24T04:51:43.926Z,24.40
2023-01-24T04:54:20.747Z,28.90
2023-01-24T04:56:52.647Z,25.40
2023-01-24T04:59:23.613Z,26.30
2023-01-24T05:01:54.870Z,26.00
2023-01-24T05:04:40.888Z,26.80
2023-01-24T05:07:12.067Z,23.80
2023-01-24T05:09:43.076Z,23.70
2023-01-24T05:12:15.778Z,28.50
2023-01-24T05:14:47.137Z,26.00
2023-01-24T05:17:18.834Z,26.00
2023-01-24T05:19:52.979Z,25.80
2023-01-24T05:22:32.356Z,24.80
2023-01-24T05:25:03.423Z,26.70
2023-01-24T05:27:34.488Z,26.10
2023-01-24T05:30:26.704Z,26.90
2023-01-24T05:33:00.881Z,25.60
2023-01-24T05:35:32.098Z,25.30
2023-01-24T05:38:18.076Z,25.40
2023-01-24T05:41:02.925Z,25.10
2023-01-24T05:43:41.875Z,25.50
2023-01-24T05:46:17.625Z,26.50
2023-01-24T05:48:58.529Z,24.10
2023-01-24T05:52:07.442Z,23.70
2023-01-24T05:54:50.925Z,25.40
2023-01-24T05:57:31.323Z,24.40
2023-01-24T06:00:24.834Z,24.30
2023-01-24T06:03:19.176Z,24.20
2023-01-24T06:05:56.451Z,23.10
2023-01-24T06:08:28.397Z,25.80
2023-01-24T06:11:03.239Z,25.80
2023-01-24T06:13:34.989Z,24.70
2023-01-24T06:16:13.008Z,24.50
2023-01-24T06:18:46.670Z,25.30
2023-01-24T06:21:36.988Z,27.50
2023-01-24T06:24:11.121Z,25.40
2023-01-24T06:26:59.674Z,26.00
2023-01-24T06:29:40.641Z,24.90
2023-01-24T06:32:31.072Z,23.20
2023-01-24T06:35:20.806Z,24.90
2023-01-24T06:37:54.783Z,24.20
2023-01-24T06:40:31.690Z,25.90
2023-01-24T06:43:03.756Z,25.50
2023-01-24T06:45:36.043Z,25.30
2023-01-24T06:48:09.296Z,26.70
2023-01-24T06:50:40.912Z,25.50
2023-01-24T06:53:16.827Z,25.30
2023-01-24T06:55:49.821Z,26.10
2023-01-24T06:58:24.415Z,27.00
2023-01-24T07:00:56.794Z,38.00
2023-01-24T07:03:32.658Z,33.70
2023-01-24T07:06:04.177Z,27.70
2023-01-24T07:08:35.655Z,26.70
2023-01-24T07:11:07.047Z,26.40
2023-01-24T07:13:40.656Z,28.00
2023-01-24T07:16:12.170Z,26.70
2023-01-24T07:18:46.174Z,26.60
2023-01-24T07:21:18.981Z,27.60
2023-01-24T07:23:58.190Z,25.70
2023-01-24T07:26:30.688Z,26.80
2023-01-24T07:29:01.634Z,26.00
2023-01-24T07:31:35.660Z,26.90
2023-01-24T07:34:06.778Z,26.50
2023-01-24T07:36:40.241Z,32.60
2023-01-24T07:39:11.265Z,31.20
2023-01-24T07:41:43.687Z,29.70
2023-01-24T07:44:16.520Z,27.10
2023-01-24T07:46:47.636Z,26.50
2023-01-24T07:49:20.209Z,26.70
2023-01-24T07:52:07.170Z,28.70
2023-01-24T07:54:46.268Z,27.40
2023-01-24T07:57:18.224Z,27.10
2023-01-24T07:59:53.129Z,28.60
2023-01-24T08:02:27.386Z,29.60
2023-01-24T08:05:12.460Z,31.20
2023-01-24T08:07:55.890Z,30.80
2023-01-24T08:10:28.175Z,29.60
2023-01-24T08:12:59.805Z,30.80
2023-01-24T08:15:33.542Z,29.40
2023-01-24T08:18:06.720Z,30.40
2023-01-24T08:20:38.016Z,31.20
2023-01-24T08:23:09.088Z,40.80
2023-01-24T08:25:41.001Z,34.10
2023-01-24T08:28:12.236Z,28.40
2023-01-24T08:30:45.401Z,28.30
2023-01-24T08:33:19.964Z,28.60
2023-01-24T08:35:53.024Z,29.20
2023-01-24T08:38:26.458Z,28.70
2023-01-24T08:40:57.675Z,29.70
2023-01-24T08:43:29.075Z,26.90
2023-01-24T08:46:00.224Z,28.50
2023-01-24T08:48:34.039Z,29.20
2023-01-24T08:51:08.863Z,30.20
2023-01-24T08:53:39.969Z,26.80
2023-01-24T08:56:12.772Z,30.00
2023-01-24T08:58:45.042Z,29.20
2023-01-24T09:01:18.448Z,29.30
2023-01-24T09:03:50.053Z,28.10
2023-01-24T09:06:21.966Z,30.70
2023-01-24T09:08:55.797Z,30.00
2023-01-24T09:11:26.942Z,28.70
2023-01-24T09:13:59.375Z,30.50
2023-01-24T09:16:31.762Z,27.60
2023-01-24T09:19:14.645Z,28.10
2023-01-24T09:21:52.597Z,28.10
2023-01-24T09:24:24.586Z,34.00
2023-01-24T09:26:55.672Z,32.30
2023-01-24T09:29:29.049Z,27.30
2023-01-24T09:32:00.614Z,28.50
2023-01-24T09:34:31.629Z,28.50
2023-01-24T09:37:02.861Z,28.40
2023-01-24T09:39:39.145Z,28.20
2023-01-24T09:42:25.869Z,27.50
2023-01-24T09:45:17.363Z,27.50
2023-01-24T09:47:55.187Z,23.50
2023-01-24T09:50:34.806Z,27.50
2023-01-24T09:53:06.322Z,23.80
2023-01-24T09:55:42.749Z,25.40
2023-01-24T09:58:31.803Z,24.90
2023-01-24T10:01:07.955Z,25.20
2023-01-24T10:03:41.185Z,25.60
2023-01-24T10:06:30.431Z,25.40
2023-01-24T10:09:56.055Z,24.30
2023-01-24T10:13:08.395Z,26.50
2023-01-24T10:16:13.413Z,25.40
2023-01-24T10:19:08.437Z,24.80
2023-01-24T10:26:08.487Z,22.50
2023-01-24T10:30:23.088Z,24.30
2023-01-24T10:33:42.982Z,24.40
2023-01-24T10:40:15.287Z,23.90
2023-01-24T10:42:46.601Z,24.70
2023-01-24T10:49:20.340Z,25.90
2023-01-24T10:52:40.044Z,21.70
2023-01-24T10:55:45.705Z,21.30
2023-01-24T10:58:38.420Z,22.10
2023-01-24T11:04:34.662Z,22.50
2023-01-24T11:07:21.674Z,23.40
2023-01-24T11:10:47.500Z,21.70
2023-01-24T11:14:09.750Z,22.90
2023-01-24T11:16:52.657Z,22.80
2023-01-24T11:20:18.979Z,22.40
2023-01-24T11:25:34.925Z,22.30
2023-01-24T11:28:29.124Z,23.30
2023-01-24T11:31:20.143Z,24.70
2023-01-24T11:34:41.796Z,23.20
2023-01-24T11:38:09.843Z,24.70
2023-01-24T11:40:43.813Z,24.20
2023-01-24T11:43:37.513Z,24.30
2023-01-24T11:50:03.630Z,24.50
2023-01-24T11:54:01.901Z,24.10
2023-01-24T11:57:09.623Z,24.20
2023-01-24T12:00:33.054Z,24.40
2023-01-24T12:03:59.303Z,22.10
2023-01-24T12:07:10.177Z,23.10
2023-01-24T12:09:56.696Z,24.60
2023-01-24T12:12:44.375Z,24.10
2023-01-24T12:15:54.883Z,23.30
2023-01-24T12:18:57.641Z,23.90
2023-01-24T12:21:29.563Z,23.20
2023-01-24T12:24:07.417Z,21.60
2023-01-24T12:26:45.195Z,23.20
2023-01-24T12:29:23.579Z,24.40
2023-01-24T12:32:00.744Z,22.20
2023-01-24T12:34:45.134Z,22.80
2023-01-24T12:37:26.189Z,22.30
2023-01-24T12:40:04.922Z,21.90
2023-01-24T12:42:51.057Z,24.40
2023-01-24T12:45:27.684Z,22.20
2023-01-24T12:48:06.711Z,22.40
2023-01-24T12:50:45.923Z,23.20
2023-01-24T12:53:25.053Z,23.60
2023-01-24T12:56:06.293Z,23.00
2023-01-24T12:58:41.840Z,22.90
2023-01-24T13:01:32.968Z,22.40
2023-01-24T13:04:18.526Z,23.40
2023-01-24T13:06:59.783Z,22.50
2023-01-24T13:09:37.819Z,21.80
2023-01-24T13:12:17.759Z,19.20
2023-01-24T13:14:55.165Z,20.80
2023-01-24T13:18:01.874Z,17.90
2023-01-24T13:20:56.305Z,17.90
2023-01-24T13:23:49.142Z,17.70
2023-01-24T13:26:35.413Z,12.90
2023-01-24T13:29:21.398Z,17.70
2023-01-24T13:32:01.459Z,18.30
2023-01-24T13:34:36.204Z,19.50
2023-01-24T13:37:09.156Z,18.90
2023-01-24T13:39:44.340Z,18.70
2023-01-24T13:42:33.510Z,17.70
2023-01-24T13:45:42.500Z,17.10
2023-01-24T13:48:44.860Z,18.70
2023-01-24T13:51:48.897Z,18.30
2023-01-24T13:54:41.044Z,18.50
2023-01-24T13:57:29.904Z,17.80
2023-01-24T14:00:20.222Z,18.70
2023-01-24T14:03:17.041Z,18.90
2023-01-24T14:05:52.267Z,18.70
2023-01-24T14:08:42.223Z,18.00
2023-01-24T14:11:24.504Z,18.30
2023-01-24T14:14:02.450Z,18.00
2023-01-24T14:17:06.773Z,19.50
2023-01-24T14:19:41.939Z,18.10
2023-01-24T14:22:31.094Z,17.30
2023-01-24T14:25:30.965Z,18.30
2023-01-24T14:28:04.440Z,18.00
2023-01-24T14:30:49.568Z,18.00
2023-01-24T14:33:32.264Z,18.30
2023-01-24T14:36:07.673Z,19.30
2023-01-24T14:38:38.920Z,19.10
2023-01-24T14:41:22.727Z,20.10
2023-01-24T14:43:54.859Z,19.20
2023-01-24T14:46:27.558Z,18.90
2023-01-24T14:48:58.818Z,18.80
2023-01-24T14:51:30.123Z,22.00
2023-01-24T14:54:08.311Z,18.10
2023-01-24T14:56:43.960Z,20.40
2023-01-24T14:59:19.208Z,20.50
2023-01-24T15:02:02.342Z,20.90
2023-01-24T15:04:33.543Z,21.30
2023-01-24T15:07:12.997Z,21.90
2023-01-24T15:09:45.136Z,21.60
2023-01-24T15:12:24.707Z,23.30
2023-01-24T15:14:57.285Z,22.90
2023-01-24T15:17:31.806Z,24.70
2023-01-24T15:20:09.816Z,22.90
2023-01-24T15:22:42.556Z,23.80
2023-01-24T15:25:24.888Z,24.60
2023-01-24T15:27:58.819Z,23.10
2023-01-24T15:30:30.851Z,24.00
2023-01-24T15:33:12.734Z,25.60
2023-01-24T15:35:50.229Z,24.00
2023-01-24T15:38:30.222Z,26.30
2023-01-24T15:41:19.301Z,23.50
2023-01-24T15:44:01.208Z,23.60
2023-01-24T15:46:55.153Z,24.60
2023-01-24T15:49:38.843Z,26.60
2023-01-24T15:52:21.048Z,24.10
2023-01-24T15:54:59.465Z,25.80
2023-01-24T15:57:33.944Z,26.60
2023-01-24T16:00:26.045Z,25.30
2023-01-24T16:02:58.443Z,26.30
2023-01-24T16:05:30.659Z,23.60
2023-01-24T16:08:01.803Z,23.80
2023-01-24T16:10:33.939Z,23.10
2023-01-24T16:13:05.542Z,23.80
2023-01-24T16:16:04.586Z,25.00
2023-01-24T16:18:42.335Z,24.20
2023-01-24T16:22:27.530Z,23.80
2023-01-24T16:29:22.296Z,22.50
2023-01-24T16:31:53.718Z,23.70
2023-01-24T16:34:25.701Z,22.10
2023-01-24T16:36:56.685Z,23.40
2023-01-24T16:39:29.182Z,23.40
2023-01-24T16:42:05.636Z,22.50
2023-01-24T16:44:51.724Z,23.90
2023-01-24T16:47:34.701Z,23.30
2023-01-24T16:50:18.908Z,23.50
2023-01-24T16:52:53.909Z,24.40
2023-01-24T16:55:25.348Z,23.80
2023-01-24T16:58:00.993Z,23.30
2023-01-24T17:00:34.011Z,24.90
2023-01-24T17:03:06.026Z,22.60
2023-01-24T17:05:40.418Z,23.60
2023-01-24T17:08:15.344Z,24.70
2023-01-24T17:10:48.036Z,25.90
2023-01-24T17:13:21.158Z,24.90
2023-01-24T17:15:53.459Z,25.10
2023-01-24T17:18:25.829Z,26.20
2023-01-24T17:20:56.968Z,23.70
2023-01-24T17:23:28.621Z,23.70
2023-01-24T17:26:06.220Z,26.00
2023-01-24T17:28:48.479Z,25.20
2023-01-24T17:31:23.058Z,25.60
2023-01-24T17:33:56.399Z,27.10
2023-01-24T17:37:15.042Z,26.80
2023-01-24T17:39:46.027Z,26.90
2023-01-24T17:42:17.497Z,25.50
2023-01-24T17:44:54.583Z,25.60
2023-01-24T17:47:32.674Z,24.60
2023-01-24T17:50:10.130Z,23.30
2023-01-24T17:52:41.305Z,22.20
2023-01-24T17:55:14.778Z,23.40
2023-01-24T17:57:50.881Z,24.40
2023-01-24T18:00:26.408Z,24.30
2023-01-24T18:02:57.790Z,22.90
2023-01-24T18:16:43.347Z,26.60
2023-01-24T18:19:16.755Z,25.90
2023-01-24T18:21:48.648Z,26.70
2023-01-24T18:24:27.004Z,26.50
2023-01-24T18:26:58.742Z,23.80
2023-01-24T18:29:30.292Z,22.70
2023-01-24T18:32:01.645Z,19.00
2023-01-24T18:34:33.279Z,20.80
2023-01-24T18:37:04.450Z,20.30
2023-01-24T18:39:35.644Z,19.50
2023-01-24T18:42:08.344Z,22.00
2023-01-24T18:44:39.400Z,21.70
2023-01-24T18:47:10.649Z,20.30
2023-01-24T18:49:41.705Z,21.90
2023-01-24T18:52:13.299Z,21.70
2023-01-24T18:54:44.546Z,24.60
2023-01-24T18:57:15.700Z,26.00
2023-01-24T18:59:46.948Z,25.60
2023-01-24T19:02:18.170Z,24.30
2023-01-24T19:04:49.510Z,24.60
2023-01-24T19:07:20.606Z,26.10
2023-01-24T19:09:51.797Z,27.90
2023-01-24T19:12:22.959Z,28.90
2023-01-24T19:14:54.714Z,30.40
2023-01-24T19:17:26.331Z,28.50
2023-01-24T19:19:57.627Z,29.30
2023-01-24T19:22:28.799Z,28.80
2023-01-24T19:25:00.275Z,27.90
2023-01-24T19:27:31.412Z,37.10
2023-01-24T19:30:02.554Z,30.10
2023-01-24T19:32:33.661Z,32.20
2023-01-24T19:35:05.294Z,28.20
2023-01-24T19:37:36.537Z,29.10
2023-01-24T19:40:10.023Z,30.20
2023-01-24T19:42:42.621Z,29.40
2023-01-24T19:45:15.119Z,29.00
2023-01-24T19:47:47.663Z,29.00
2023-01-24T19:50:19.607Z,30.70
2023-01-24T19:52:52.140Z,30.90
2023-01-24T19:55:23.227Z,27.30
2023-01-24T19:57:54.410Z,29.40
2023-01-24T20:00:25.675Z,28.80
2023-01-24T20:02:56.912Z,27.40
2023-01-24T20:05:29.138Z,27.40
2023-01-24T20:08:00.944Z,29.00
2023-01-24T20:10:32.200Z,30.50
2023-01-24T20:13:04.095Z,30.90
2023-01-24T20:15:35.594Z,29.00
2023-01-24T20:18:10.380Z,30.10
2023-01-24T20:20:49.336Z,28.30
2023-01-24T20:23:20.835Z,28.70
2023-01-24T20:25:53.339Z,29.90
2023-01-24T20:28:26.467Z,28.70
2023-01-24T20:31:00.153Z,26.90
2023-01-24T20:33:32.282Z,26.90
2023-01-24T20:36:06.905Z,25.80
2023-01-24T20:38:39.562Z,22.10
2023-01-24T20:41:13.334Z,21.20
2023-01-24T20:43:46.023Z,20.80
2023-01-24T20:46:20.800Z,19.70
2023-01-24T20:48:53.640Z,19.60
2023-01-24T20:51:29.304Z,19.10
2023-01-24T20:54:01.938Z,19.00
2023-01-24T20:56:34.043Z,19.80
2023-01-24T20:59:05.363Z,19.30
2023-01-24T21:01:36.490Z,19.00
2023-01-24T21:04:08.667Z,17.40
2023-01-24T21:06:41.789Z,18.90
2023-01-24T21:09:14.542Z,19.60
2023-01-24T21:11:47.827Z,18.00
2023-01-24T21:14:20.875Z,18.40
2023-01-24T21:16:53.066Z,17.60
2023-01-24T21:19:25.890Z,18.20
2023-01-24T21:21:57.303Z,17.50
2023-01-24T21:24:33.715Z,19.20
2023-01-24T21:27:05.683Z,19.10
2023-01-24T21:29:36.954Z,18.50
2023-01-24T21:32:08.513Z,18.20
2023-01-24T21:34:39.753Z,19.90
2023-01-24T21:37:22.747Z,20.20
2023-01-24T21:40:02.399Z,19.40
2023-01-24T21:42:33.444Z,19.30
2023-01-24T21:45:05.250Z,20.30
2023-01-24T21:47:36.809Z,20.10
2023-01-24T21:50:08.762Z,21.20
2023-01-24T21:52:39.895Z,19.60
2023-01-24T21:55:11.510Z,19.90
2023-01-24T21:58:00.482Z,20.10
2023-01-24T22:00:34.527Z,18.70
2023-01-24T22:03:19.615Z,18.60
2023-01-24T22:05:52.127Z,18.20
2023-01-24T22:08:23.328Z,18.30
2023-01-24T22:11:00.275Z,19.10
2023-01-24T22:13:31.485Z,18.00
2023-01-24T22:16:03.563Z,19.10
2023-01-24T22:18:35.586Z,20.30
2023-01-24T22:21:18.003Z,20.60
2023-01-24T22:23:57.474Z,22.50
2023-01-24T22:26:34.224Z,22.00
2023-01-24T22:29:05.958Z,22.30
2023-01-24T22:31:38.467Z,21.60
2023-01-24T22:34:13.052Z,22.40
2023-01-24T22:36:45.828Z,22.20
2023-01-24T22:39:16.911Z,21.30
2023-01-24T22:41:47.815Z,24.40
2023-01-24T22:44:18.732Z,22.80
2023-01-24T22:46:49.940Z,22.00
2023-01-24T22:49:20.873Z,22.60
2023-01-24T22:51:51.920Z,22.70
2023-01-24T22:54:22.959Z,25.10
2023-01-24T22:56:54.010Z,24.20
2023-01-24T22:59:24.924Z,20.70
2023-01-24T23:01:56.016Z,20.60
2023-01-24T23:04:27.146Z,21.40
2023-01-24T23:06:58.158Z,20.50
2023-01-24T23:09:29.271Z,20.10
2023-01-24T23:12:00.401Z,18.30
2023-01-24T23:14:49.129Z,19.60
2023-01-24T23:17:20.298Z,18.50
2023-01-24T23:20:08.865Z,19.90
2023-01-24T23:22:39.882Z,20.10
2023-01-24T23:25:11.430Z,19.70
2023-01-24T23:27:42.765Z,19.50
2023-01-24T23:30:33.878Z,19.90
2023-01-24T23:33:24.108Z,18.90
2023-01-24T23:35:55.231Z,17.30
2023-01-24T23:38:26.274Z,17.10
2023-01-24T23:40:57.311Z,18.10
2023-01-24T23:43:28.386Z,18.50
2023-01-24T23:45:59.465Z,18.40
2023-01-24T23:48:30.645Z,19.20
2023-01-24T23:51:02.626Z,18.50
2023-01-24T23:53:33.848Z,18.00
2023-01-24T23:56:05.523Z,17.90
2023-01-24T23:58:36.501Z,15.30
